sensor_id;sensor_type;location;lat;lon;timestamp;P1;durP1;ratioP1;P2;durP2;ratioP2
2680;SDS011;1350;42.134;24.708;2022-08-25T00:00:24;18.30;;;9.40;;
2680;SDS011;1350;42.134;24.708;2022-08-25T00:02:50;26.43;;;10.80;;
2680;SDS011;1350;42.134;24.708;2022-08-25T00:05:20;26.70;;;10.20;;
2680;SDS011;1350;42.134;24.708;2022-08-25T00:07:47;14.97;;;8.80;;
2680;SDS011;1350;42.134;24.708;2022-08-25T00:10:14;20.33;;;10.90;;
2680;SDS011;1350;42.134;24.708;2022-08-25T00:12:42;17.07;;;10.00;;
2680;SDS011;1350;42.134;24.708;2022-08-25T00:15:09;19.40;;;11.10;;
2680;SDS011;1350;42.134;24.708;2022-08-25T00:17:36;21.17;;;10.03;;
2680;SDS011;1350;42.134;24.708;2022-08-25T00:20:03;15.13;;;9.17;;
2680;SDS011;1350;42.134;24.708;2022-08-25T00:22:33;20.60;;;11.10;;
2680;SDS011;1350;42.134;24.708;2022-08-25T00:25:00;19.23;;;9.67;;
2680;SDS011;1350;42.134;24.708;2022-08-25T00:27:27;22.80;;;8.33;;
2680;SDS011;1350;42.134;24.708;2022-08-25T00:29:55;22.37;;;9.40;;
2680;SDS011;1350;42.134;24.708;2022-08-25T00:32:22;26.63;;;9.80;;
2680;SDS011;1350;42.134;24.708;2022-08-25T00:34:49;19.03;;;9.23;;
2680;SDS011;1350;42.134;24.708;2022-08-25T00:37:17;19.27;;;8.37;;
2680;SDS011;1350;42.134;24.708;2022-08-25T00:39:44;16.57;;;9.10;;
2680;SDS011;1350;42.134;24.708;2022-08-25T00:42:12;17.77;;;8.00;;
2680;SDS011;1350;42.134;24.708;2022-08-25T00:44:39;22.33;;;10.57;;
2680;SDS011;1350;42.134;24.708;2022-08-25T00:47:09;21.03;;;9.73;;
2680;SDS011;1350;42.134;24.708;2022-08-25T00:49:36;20.27;;;9.53;;
2680;SDS011;1350;42.134;24.708;2022-08-25T00:52:08;19.00;;;9.97;;
2680;SDS011;1350;42.134;24.708;2022-08-25T00:54:36;19.90;;;9.50;;
2680;SDS011;1350;42.134;24.708;2022-08-25T00:57:06;15.50;;;8.30;;
2680;SDS011;1350;42.134;24.708;2022-08-25T00:59:35;25.87;;;11.60;;
2680;SDS011;1350;42.134;24.708;2022-08-25T01:02:02;19.50;;;9.03;;
2680;SDS011;1350;42.134;24.708;2022-08-25T01:04:33;15.20;;;8.80;;
2680;SDS011;1350;42.134;24.708;2022-08-25T01:07:02;19.80;;;9.40;;
2680;SDS011;1350;42.134;24.708;2022-08-25T01:09:30;20.53;;;10.07;;
2680;SDS011;1350;42.134;24.708;2022-08-25T01:11:58;13.10;;;8.70;;
2680;SDS011;1350;42.134;24.708;2022-08-25T01:14:26;19.10;;;8.73;;
2680;SDS011;1350;42.134;24.708;2022-08-25T01:16:55;20.43;;;8.80;;
2680;SDS011;1350;42.134;24.708;2022-08-25T01:19:23;22.07;;;9.50;;
2680;SDS011;1350;42.134;24.708;2022-08-25T01:21:53;17.93;;;8.20;;
2680;SDS011;1350;42.134;24.708;2022-08-25T01:24:23;20.23;;;9.33;;
2680;SDS011;1350;42.134;24.708;2022-08-25T01:26:55;14.97;;;9.30;;
2680;SDS011;1350;42.134;24.708;2022-08-25T01:29:23;25.87;;;9.97;;
2680;SDS011;1350;42.134;24.708;2022-08-25T01:31:51;19.70;;;9.27;;
2680;SDS011;1350;42.134;24.708;2022-08-25T01:34:22;19.50;;;9.50;;
2680;SDS011;1350;42.134;24.708;2022-08-25T01:36:50;16.97;;;8.53;;
2680;SDS011;1350;42.134;24.708;2022-08-25T01:39:18;19.53;;;8.73;;
2680;SDS011;1350;42.134;24.708;2022-08-25T01:41:49;17.27;;;9.10;;
2680;SDS011;1350;42.134;24.708;2022-08-25T01:44:24;16.60;;;8.93;;
2680;SDS011;1350;42.134;24.708;2022-08-25T01:46:51;16.33;;;8.07;;
2680;SDS011;1350;42.134;24.708;2022-08-25T01:49:18;19.60;;;9.40;;
2680;SDS011;1350;42.134;24.708;2022-08-25T01:51:46;19.80;;;9.43;;
2680;SDS011;1350;42.134;24.708;2022-08-25T01:54:20;16.80;;;10.97;;
2680;SDS011;1350;42.134;24.708;2022-08-25T01:56:46;15.43;;;7.30;;
2680;SDS011;1350;42.134;24.708;2022-08-25T01:59:14;20.20;;;8.60;;
2680;SDS011;1350;42.134;24.708;2022-08-25T02:01:41;14.70;;;7.87;;
2680;SDS011;1350;42.134;24.708;2022-08-25T02:04:08;14.83;;;6.40;;
2680;SDS011;1350;42.134;24.708;2022-08-25T02:06:36;12.10;;;7.07;;
2680;SDS011;1350;42.134;24.708;2022-08-25T02:09:06;14.23;;;7.33;;
2680;SDS011;1350;42.134;24.708;2022-08-25T02:11:36;13.40;;;8.90;;
2680;SDS011;1350;42.134;24.708;2022-08-25T02:14:06;15.10;;;8.57;;
2680;SDS011;1350;42.134;24.708;2022-08-25T02:16:35;11.53;;;7.60;;
2680;SDS011;1350;42.134;24.708;2022-08-25T02:19:03;14.87;;;8.20;;
2680;SDS011;1350;42.134;24.708;2022-08-25T02:21:33;10.93;;;7.50;;
2680;SDS011;1350;42.134;24.708;2022-08-25T02:24:00;10.70;;;6.90;;
2680;SDS011;1350;42.134;24.708;2022-08-25T02:26:27;18.00;;;8.00;;
2680;SDS011;1350;42.134;24.708;2022-08-25T02:28:56;14.70;;;8.47;;
2680;SDS011;1350;42.134;24.708;2022-08-25T02:31:23;18.60;;;8.00;;
2680;SDS011;1350;42.134;24.708;2022-08-25T02:33:50;18.23;;;8.67;;
2680;SDS011;1350;42.134;24.708;2022-08-25T02:36:18;18.70;;;9.57;;
2680;SDS011;1350;42.134;24.708;2022-08-25T02:38:45;14.93;;;7.87;;
2680;SDS011;1350;42.134;24.708;2022-08-25T02:41:13;21.20;;;7.80;;
2680;SDS011;1350;42.134;24.708;2022-08-25T02:43:43;13.10;;;6.90;;
2680;SDS011;1350;42.134;24.708;2022-08-25T02:46:14;13.10;;;7.90;;
2680;SDS011;1350;42.134;24.708;2022-08-25T02:48:42;17.50;;;7.20;;
2680;SDS011;1350;42.134;24.708;2022-08-25T02:51:10;14.70;;;6.47;;
2680;SDS011;1350;42.134;24.708;2022-08-25T02:53:37;13.10;;;7.30;;
2680;SDS011;1350;42.134;24.708;2022-08-25T02:56:07;14.50;;;7.10;;
2680;SDS011;1350;42.134;24.708;2022-08-25T02:58:35;15.43;;;8.23;;
2680;SDS011;1350;42.134;24.708;2022-08-25T03:01:03;15.57;;;6.53;;
2680;SDS011;1350;42.134;24.708;2022-08-25T03:03:32;16.43;;;7.50;;
2680;SDS011;1350;42.134;24.708;2022-08-25T03:05:59;12.67;;;6.03;;
2680;SDS011;1350;42.134;24.708;2022-08-25T03:08:26;15.50;;;7.17;;
2680;SDS011;1350;42.134;24.708;2022-08-25T03:10:53;15.33;;;6.70;;
2680;SDS011;1350;42.134;24.708;2022-08-25T03:13:19;16.00;;;6.83;;
2680;SDS011;1350;42.134;24.708;2022-08-25T03:15:46;13.37;;;6.90;;
2680;SDS011;1350;42.134;24.708;2022-08-25T03:18:13;11.90;;;5.20;;
2680;SDS011;1350;42.134;24.708;2022-08-25T03:20:42;10.13;;;6.13;;
2680;SDS011;1350;42.134;24.708;2022-08-25T03:23:09;9.53;;;5.60;;
2680;SDS011;1350;42.134;24.708;2022-08-25T03:25:37;12.70;;;6.20;;
2680;SDS011;1350;42.134;24.708;2022-08-25T03:28:22;9.13;;;5.03;;
2680;SDS011;1350;42.134;24.708;2022-08-25T03:30:50;13.23;;;6.67;;
2680;SDS011;1350;42.134;24.708;2022-08-25T03:33:17;12.27;;;5.63;;
2680;SDS011;1350;42.134;24.708;2022-08-25T03:35:45;9.00;;;6.27;;
2680;SDS011;1350;42.134;24.708;2022-08-25T03:38:12;9.00;;;5.90;;
2680;SDS011;1350;42.134;24.708;2022-08-25T03:40:39;7.53;;;4.77;;
2680;SDS011;1350;42.134;24.708;2022-08-25T03:43:06;8.90;;;5.30;;
2680;SDS011;1350;42.134;24.708;2022-08-25T03:45:33;9.37;;;5.20;;
2680;SDS011;1350;42.134;24.708;2022-08-25T03:48:00;12.33;;;6.20;;
2680;SDS011;1350;42.134;24.708;2022-08-25T03:50:27;9.30;;;4.80;;
2680;SDS011;1350;42.134;24.708;2022-08-25T03:52:55;12.00;;;5.57;;
2680;SDS011;1350;42.134;24.708;2022-08-25T03:55:23;10.17;;;5.47;;
2680;SDS011;1350;42.134;24.708;2022-08-25T03:57:51;11.07;;;5.10;;
2680;SDS011;1350;42.134;24.708;2022-08-25T04:00:19;19.83;;;7.07;;
2680;SDS011;1350;42.134;24.708;2022-08-25T04:02:47;69.73;;;49.13;;
2680;SDS011;1350;42.134;24.708;2022-08-25T04:05:14;34.73;;;28.13;;
2680;SDS011;1350;42.134;24.708;2022-08-25T04:07:41;21.23;;;6.37;;
2680;SDS011;1350;42.134;24.708;2022-08-25T04:10:09;19.63;;;13.40;;
2680;SDS011;1350;42.134;24.708;2022-08-25T04:12:36;22.17;;;13.80;;
2680;SDS011;1350;42.134;24.708;2022-08-25T04:15:04;9.70;;;4.47;;
2680;SDS011;1350;42.134;24.708;2022-08-25T04:17:32;10.63;;;5.60;;
2680;SDS011;1350;42.134;24.708;2022-08-25T04:20:00;7.23;;;5.30;;
2680;SDS011;1350;42.134;24.708;2022-08-25T04:22:28;10.27;;;4.70;;
2680;SDS011;1350;42.134;24.708;2022-08-25T04:24:57;8.87;;;4.40;;
2680;SDS011;1350;42.134;24.708;2022-08-25T04:27:25;9.53;;;4.50;;
2680;SDS011;1350;42.134;24.708;2022-08-25T04:29:52;11.23;;;3.83;;
2680;SDS011;1350;42.134;24.708;2022-08-25T04:32:19;9.30;;;5.30;;
2680;SDS011;1350;42.134;24.708;2022-08-25T04:34:46;10.23;;;4.70;;
2680;SDS011;1350;42.134;24.708;2022-08-25T04:37:13;8.57;;;4.80;;
2680;SDS011;1350;42.134;24.708;2022-08-25T04:39:40;8.97;;;4.97;;
2680;SDS011;1350;42.134;24.708;2022-08-25T04:42:07;9.87;;;4.80;;
2680;SDS011;1350;42.134;24.708;2022-08-25T04:44:36;10.00;;;5.90;;
2680;SDS011;1350;42.134;24.708;2022-08-25T04:47:03;12.13;;;4.77;;
2680;SDS011;1350;42.134;24.708;2022-08-25T04:49:30;12.50;;;5.27;;
2680;SDS011;1350;42.134;24.708;2022-08-25T04:51:57;10.83;;;4.60;;
2680;SDS011;1350;42.134;24.708;2022-08-25T04:54:24;11.60;;;4.13;;
2680;SDS011;1350;42.134;24.708;2022-08-25T04:56:52;8.60;;;4.53;;
2680;SDS011;1350;42.134;24.708;2022-08-25T04:59:19;16.63;;;4.60;;
2680;SDS011;1350;42.134;24.708;2022-08-25T05:01:47;14.67;;;4.60;;
2680;SDS011;1350;42.134;24.708;2022-08-25T05:04:15;9.87;;;4.37;;
2680;SDS011;1350;42.134;24.708;2022-08-25T05:06:44;9.07;;;4.20;;
2680;SDS011;1350;42.134;24.708;2022-08-25T05:09:11;14.30;;;5.37;;
2680;SDS011;1350;42.134;24.708;2022-08-25T05:11:38;15.50;;;4.53;;
2680;SDS011;1350;42.134;24.708;2022-08-25T05:14:06;9.63;;;5.27;;
2680;SDS011;1350;42.134;24.708;2022-08-25T05:16:36;9.50;;;4.13;;
2680;SDS011;1350;42.134;24.708;2022-08-25T05:19:05;12.30;;;4.80;;
2680;SDS011;1350;42.134;24.708;2022-08-25T05:21:32;14.50;;;5.23;;
2680;SDS011;1350;42.134;24.708;2022-08-25T05:24:00;22.37;;;5.77;;
2680;SDS011;1350;42.134;24.708;2022-08-25T05:26:28;8.90;;;4.77;;
2680;SDS011;1350;42.134;24.708;2022-08-25T05:28:57;15.33;;;7.03;;
2680;SDS011;1350;42.134;24.708;2022-08-25T05:31:25;18.10;;;5.33;;
2680;SDS011;1350;42.134;24.708;2022-08-25T05:33:53;14.90;;;8.70;;
2680;SDS011;1350;42.134;24.708;2022-08-25T05:36:22;12.67;;;8.23;;
2680;SDS011;1350;42.134;24.708;2022-08-25T05:38:50;23.60;;;10.27;;
2680;SDS011;1350;42.134;24.708;2022-08-25T05:41:19;9.63;;;5.90;;
2680;SDS011;1350;42.134;24.708;2022-08-25T05:43:47;20.20;;;7.30;;
2680;SDS011;1350;42.134;24.708;2022-08-25T05:46:15;12.50;;;7.63;;
2680;SDS011;1350;42.134;24.708;2022-08-25T05:48:43;16.83;;;6.87;;
2680;SDS011;1350;42.134;24.708;2022-08-25T05:51:10;15.00;;;8.50;;
2680;SDS011;1350;42.134;24.708;2022-08-25T05:53:41;17.30;;;8.00;;
2680;SDS011;1350;42.134;24.708;2022-08-25T05:56:09;22.27;;;9.67;;
2680;SDS011;1350;42.134;24.708;2022-08-25T05:58:38;16.77;;;9.00;;
2680;SDS011;1350;42.134;24.708;2022-08-25T06:01:05;22.60;;;9.90;;
2680;SDS011;1350;42.134;24.708;2022-08-25T06:03:46;25.23;;;9.40;;
2680;SDS011;1350;42.134;24.708;2022-08-25T06:06:13;15.83;;;9.20;;
2680;SDS011;1350;42.134;24.708;2022-08-25T06:08:42;18.17;;;9.33;;
2680;SDS011;1350;42.134;24.708;2022-08-25T06:11:09;14.87;;;9.40;;
2680;SDS011;1350;42.134;24.708;2022-08-25T06:13:37;19.57;;;10.43;;
2680;SDS011;1350;42.134;24.708;2022-08-25T06:16:04;20.17;;;10.50;;
2680;SDS011;1350;42.134;24.708;2022-08-25T06:18:31;13.10;;;9.90;;
2680;SDS011;1350;42.134;24.708;2022-08-25T06:20:58;19.93;;;9.80;;
2680;SDS011;1350;42.134;24.708;2022-08-25T06:23:32;24.63;;;10.77;;
2680;SDS011;1350;42.134;24.708;2022-08-25T06:26:00;16.87;;;9.50;;
2680;SDS011;1350;42.134;24.708;2022-08-25T06:28:27;16.03;;;9.73;;
2680;SDS011;1350;42.134;24.708;2022-08-25T06:30:56;23.13;;;11.43;;
2680;SDS011;1350;42.134;24.708;2022-08-25T06:33:23;17.60;;;9.00;;
2680;SDS011;1350;42.134;24.708;2022-08-25T06:35:51;18.40;;;10.07;;
2680;SDS011;1350;42.134;24.708;2022-08-25T06:38:19;16.73;;;10.13;;
2680;SDS011;1350;42.134;24.708;2022-08-25T06:40:46;24.90;;;11.00;;
2680;SDS011;1350;42.134;24.708;2022-08-25T06:43:14;15.97;;;10.93;;
2680;SDS011;1350;42.134;24.708;2022-08-25T06:45:41;23.03;;;12.10;;
2680;SDS011;1350;42.134;24.708;2022-08-25T06:48:08;19.00;;;12.00;;
2680;SDS011;1350;42.134;24.708;2022-08-25T06:50:36;22.93;;;10.83;;
2680;SDS011;1350;42.134;24.708;2022-08-25T06:53:04;22.37;;;11.00;;
2680;SDS011;1350;42.134;24.708;2022-08-25T06:55:31;24.77;;;10.83;;
2680;SDS011;1350;42.134;24.708;2022-08-25T06:57:59;26.50;;;15.70;;
2680;SDS011;1350;42.134;24.708;2022-08-25T07:00:28;22.77;;;13.70;;
2680;SDS011;1350;42.134;24.708;2022-08-25T07:02:55;27.47;;;13.27;;
2680;SDS011;1350;42.134;24.708;2022-08-25T07:05:25;26.67;;;17.00;;
2680;SDS011;1350;42.134;24.708;2022-08-25T07:07:52;25.77;;;15.20;;
2680;SDS011;1350;42.134;24.708;2022-08-25T07:10:18;24.63;;;12.47;;
2680;SDS011;1350;42.134;24.708;2022-08-25T07:12:45;19.90;;;14.60;;
2680;SDS011;1350;42.134;24.708;2022-08-25T07:15:12;28.43;;;14.00;;
2680;SDS011;1350;42.134;24.708;2022-08-25T07:17:40;19.37;;;12.17;;
2680;SDS011;1350;42.134;24.708;2022-08-25T07:20:07;24.03;;;14.70;;
2680;SDS011;1350;42.134;24.708;2022-08-25T07:22:34;19.10;;;14.43;;
2680;SDS011;1350;42.134;24.708;2022-08-25T07:25:01;21.73;;;12.73;;
2680;SDS011;1350;42.134;24.708;2022-08-25T07:27:29;30.20;;;14.00;;
2680;SDS011;1350;42.134;24.708;2022-08-25T07:29:56;20.07;;;11.73;;
2680;SDS011;1350;42.134;24.708;2022-08-25T07:32:23;24.40;;;13.00;;
2680;SDS011;1350;42.134;24.708;2022-08-25T07:34:51;23.33;;;12.20;;
2680;SDS011;1350;42.134;24.708;2022-08-25T07:37:36;19.67;;;12.90;;
2680;SDS011;1350;42.134;24.708;2022-08-25T07:40:04;19.07;;;12.60;;
2680;SDS011;1350;42.134;24.708;2022-08-25T07:42:32;25.10;;;12.27;;
2680;SDS011;1350;42.134;24.708;2022-08-25T07:44:59;28.83;;;12.37;;
2680;SDS011;1350;42.134;24.708;2022-08-25T07:47:25;29.73;;;14.30;;
2680;SDS011;1350;42.134;24.708;2022-08-25T07:49:54;21.03;;;13.13;;
2680;SDS011;1350;42.134;24.708;2022-08-25T07:52:20;25.30;;;13.97;;
2680;SDS011;1350;42.134;24.708;2022-08-25T07:54:47;24.43;;;12.80;;
2680;SDS011;1350;42.134;24.708;2022-08-25T07:57:14;18.30;;;12.20;;
2680;SDS011;1350;42.134;24.708;2022-08-25T07:59:41;24.20;;;11.73;;
2680;SDS011;1350;42.134;24.708;2022-08-25T08:02:08;19.27;;;13.00;;
2680;SDS011;1350;42.134;24.708;2022-08-25T08:04:36;25.90;;;12.33;;
2680;SDS011;1350;42.134;24.708;2022-08-25T08:07:04;24.27;;;14.40;;
2680;SDS011;1350;42.134;24.708;2022-08-25T08:09:31;29.33;;;15.03;;
2680;SDS011;1350;42.134;24.708;2022-08-25T08:11:58;26.97;;;12.53;;
2680;SDS011;1350;42.134;24.708;2022-08-25T08:14:25;22.30;;;13.13;;
2680;SDS011;1350;42.134;24.708;2022-08-25T08:16:52;20.83;;;12.00;;
2680;SDS011;1350;42.134;24.708;2022-08-25T08:19:19;21.60;;;13.00;;
2680;SDS011;1350;42.134;24.708;2022-08-25T08:21:46;32.53;;;13.27;;
2680;SDS011;1350;42.134;24.708;2022-08-25T08:24:16;24.80;;;12.03;;
2680;SDS011;1350;42.134;24.708;2022-08-25T08:26:42;27.30;;;13.00;;
2680;SDS011;1350;42.134;24.708;2022-08-25T08:29:09;21.83;;;11.03;;
2680;SDS011;1350;42.134;24.708;2022-08-25T08:31:37;18.50;;;10.77;;
2680;SDS011;1350;42.134;24.708;2022-08-25T08:34:04;23.40;;;11.57;;
2680;SDS011;1350;42.134;24.708;2022-08-25T08:36:31;29.07;;;11.73;;
2680;SDS011;1350;42.134;24.708;2022-08-25T08:38:58;24.70;;;12.93;;
2680;SDS011;1350;42.134;24.708;2022-08-25T08:41:32;29.60;;;12.50;;
2680;SDS011;1350;42.134;24.708;2022-08-25T08:44:35;26.40;;;12.43;;
2680;SDS011;1350;42.134;24.708;2022-08-25T08:47:15;24.27;;;11.27;;
2680;SDS011;1350;42.134;24.708;2022-08-25T08:49:51;27.70;;;13.13;;
2680;SDS011;1350;42.134;24.708;2022-08-25T08:52:35;24.90;;;11.80;;
2680;SDS011;1350;42.134;24.708;2022-08-25T08:55:07;28.93;;;12.20;;
2680;SDS011;1350;42.134;24.708;2022-08-25T08:57:41;24.97;;;11.47;;
2680;SDS011;1350;42.134;24.708;2022-08-25T09:00:11;22.97;;;13.10;;
2680;SDS011;1350;42.134;24.708;2022-08-25T09:02:39;24.63;;;11.17;;
2680;SDS011;1350;42.134;24.708;2022-08-25T09:05:12;35.17;;;12.23;;
2680;SDS011;1350;42.134;24.708;2022-08-25T09:07:42;24.37;;;10.00;;
2680;SDS011;1350;42.134;24.708;2022-08-25T09:10:12;22.97;;;11.03;;
2680;SDS011;1350;42.134;24.708;2022-08-25T09:12:42;24.63;;;10.30;;
2680;SDS011;1350;42.134;24.708;2022-08-25T09:15:16;27.67;;;11.10;;
2680;SDS011;1350;42.134;24.708;2022-08-25T09:18:12;30.40;;;11.23;;
2680;SDS011;1350;42.134;24.708;2022-08-25T09:20:48;23.70;;;11.37;;
2680;SDS011;1350;42.134;24.708;2022-08-25T09:23:33;26.47;;;9.73;;
2680;SDS011;1350;42.134;24.708;2022-08-25T09:26:12;25.47;;;9.97;;
2680;SDS011;1350;42.134;24.708;2022-08-25T09:28:51;30.40;;;10.90;;
2680;SDS011;1350;42.134;24.708;2022-08-25T09:31:29;29.17;;;11.00;;
2680;SDS011;1350;42.134;24.708;2022-08-25T09:34:00;31.03;;;9.77;;
2680;SDS011;1350;42.134;24.708;2022-08-25T09:36:29;26.27;;;10.00;;
2680;SDS011;1350;42.134;24.708;2022-08-25T09:38:57;16.83;;;8.33;;
2680;SDS011;1350;42.134;24.708;2022-08-25T09:41:35;41.53;;;12.90;;
2680;SDS011;1350;42.134;24.708;2022-08-25T09:44:19;31.73;;;10.33;;
2680;SDS011;1350;42.134;24.708;2022-08-25T09:46:56;19.40;;;9.73;;
2680;SDS011;1350;42.134;24.708;2022-08-25T09:49:38;23.40;;;10.33;;
2680;SDS011;1350;42.134;24.708;2022-08-25T09:52:16;24.20;;;8.57;;
2680;SDS011;1350;42.134;24.708;2022-08-25T09:54:47;37.00;;;11.90;;
2680;SDS011;1350;42.134;24.708;2022-08-25T09:57:26;33.37;;;11.37;;
2680;SDS011;1350;42.134;24.708;2022-08-25T09:59:56;28.97;;;7.80;;
2680;SDS011;1350;42.134;24.708;2022-08-25T10:02:35;39.03;;;10.47;;
2680;SDS011;1350;42.134;24.708;2022-08-25T10:05:08;35.37;;;9.23;;
2680;SDS011;1350;42.134;24.708;2022-08-25T10:07:48;26.70;;;9.90;;
2680;SDS011;1350;42.134;24.708;2022-08-25T10:10:17;17.80;;;8.40;;
2680;SDS011;1350;42.134;24.708;2022-08-25T10:12:49;36.20;;;10.70;;
2680;SDS011;1350;42.134;24.708;2022-08-25T10:15:19;33.07;;;9.80;;
2680;SDS011;1350;42.134;24.708;2022-08-25T10:17:47;21.97;;;9.00;;
2680;SDS011;1350;42.134;24.708;2022-08-25T10:20:16;36.90;;;10.03;;
2680;SDS011;1350;42.134;24.708;2022-08-25T10:22:45;20.40;;;8.97;;
2680;SDS011;1350;42.134;24.708;2022-08-25T10:25:13;28.03;;;9.60;;
2680;SDS011;1350;42.134;24.708;2022-08-25T10:27:43;25.17;;;9.47;;
2680;SDS011;1350;42.134;24.708;2022-08-25T10:30:21;26.37;;;9.27;;
2680;SDS011;1350;42.134;24.708;2022-08-25T10:33:08;27.60;;;9.50;;
2680;SDS011;1350;42.134;24.708;2022-08-25T10:35:45;25.00;;;11.47;;
2680;SDS011;1350;42.134;24.708;2022-08-25T10:38:28;32.40;;;19.30;;
2680;SDS011;1350;42.134;24.708;2022-08-25T10:41:02;31.70;;;11.03;;
2680;SDS011;1350;42.134;24.708;2022-08-25T10:43:45;37.70;;;13.60;;
2680;SDS011;1350;42.134;24.708;2022-08-25T10:46:22;27.00;;;9.40;;
2680;SDS011;1350;42.134;24.708;2022-08-25T10:48:58;32.10;;;17.70;;
2680;SDS011;1350;42.134;24.708;2022-08-25T10:51:35;28.57;;;10.63;;
2680;SDS011;1350;42.134;24.708;2022-08-25T10:54:10;47.67;;;22.83;;
2680;SDS011;1350;42.134;24.708;2022-08-25T10:56:49;46.63;;;35.83;;
2680;SDS011;1350;42.134;24.708;2022-08-25T10:59:27;25.13;;;8.40;;
2680;SDS011;1350;42.134;24.708;2022-08-25T11:05:11;26.10;;;8.63;;
2680;SDS011;1350;42.134;24.708;2022-08-25T11:07:46;34.17;;;8.37;;
2680;SDS011;1350;42.134;24.708;2022-08-25T11:10:16;30.67;;;8.33;;
2680;SDS011;1350;42.134;24.708;2022-08-25T11:12:48;23.03;;;7.90;;
2680;SDS011;1350;42.134;24.708;2022-08-25T11:15:19;26.37;;;8.67;;
2680;SDS011;1350;42.134;24.708;2022-08-25T11:17:52;24.50;;;7.53;;
2680;SDS011;1350;42.134;24.708;2022-08-25T11:20:22;32.53;;;8.80;;
2680;SDS011;1350;42.134;24.708;2022-08-25T11:22:56;27.27;;;8.67;;
2680;SDS011;1350;42.134;24.708;2022-08-25T11:25:34;23.33;;;9.80;;
2680;SDS011;1350;42.134;24.708;2022-08-25T11:28:08;26.83;;;8.83;;
2680;SDS011;1350;42.134;24.708;2022-08-25T11:30:38;23.00;;;9.90;;
2680;SDS011;1350;42.134;24.708;2022-08-25T11:33:06;26.97;;;8.47;;
2680;SDS011;1350;42.134;24.708;2022-08-25T11:35:39;23.53;;;8.00;;
2680;SDS011;1350;42.134;24.708;2022-08-25T11:38:16;29.27;;;9.00;;
2680;SDS011;1350;42.134;24.708;2022-08-25T11:40:56;22.40;;;7.27;;
2680;SDS011;1350;42.134;24.708;2022-08-25T11:43:47;25.13;;;8.77;;
2680;SDS011;1350;42.134;24.708;2022-08-25T11:46:31;19.23;;;8.33;;
2680;SDS011;1350;42.134;24.708;2022-08-25T11:49:11;24.00;;;7.93;;
2680;SDS011;1350;42.134;24.708;2022-08-25T11:52:05;24.13;;;8.10;;
2680;SDS011;1350;42.134;24.708;2022-08-25T11:54:53;17.07;;;7.03;;
2680;SDS011;1350;42.134;24.708;2022-08-25T11:57:20;19.20;;;7.60;;
2680;SDS011;1350;42.134;24.708;2022-08-25T12:00:07;27.37;;;7.50;;
2680;SDS011;1350;42.134;24.708;2022-08-25T12:02:39;26.70;;;9.10;;
2680;SDS011;1350;42.134;24.708;2022-08-25T12:05:09;42.00;;;9.50;;
2680;SDS011;1350;42.134;24.708;2022-08-25T12:08:01;25.27;;;8.00;;
2680;SDS011;1350;42.134;24.708;2022-08-25T12:13:39;25.20;;;6.77;;
2680;SDS011;1350;42.134;24.708;2022-08-25T12:21:52;22.40;;;7.67;;
2680;SDS011;1350;42.134;24.708;2022-08-25T12:24:21;25.30;;;8.30;;
2680;SDS011;1350;42.134;24.708;2022-08-25T12:27:09;19.20;;;7.20;;
2680;SDS011;1350;42.134;24.708;2022-08-25T12:29:45;21.00;;;6.90;;
2680;SDS011;1350;42.134;24.708;2022-08-25T12:35:16;19.00;;;8.00;;
2680;SDS011;1350;42.134;24.708;2022-08-25T12:37:54;20.30;;;7.97;;
2680;SDS011;1350;42.134;24.708;2022-08-25T12:40:27;22.50;;;7.00;;
2680;SDS011;1350;42.134;24.708;2022-08-25T12:43:03;22.43;;;7.60;;
2680;SDS011;1350;42.134;24.708;2022-08-25T12:45:35;25.83;;;7.80;;
2680;SDS011;1350;42.134;24.708;2022-08-25T12:51:21;21.43;;;6.90;;
2680;SDS011;1350;42.134;24.708;2022-08-25T12:53:51;40.27;;;8.87;;
2680;SDS011;1350;42.134;24.708;2022-08-25T12:56:27;32.77;;;8.30;;
2680;SDS011;1350;42.134;24.708;2022-08-25T12:59:04;24.70;;;9.00;;
2680;SDS011;1350;42.134;24.708;2022-08-25T13:01:42;27.47;;;7.27;;
2680;SDS011;1350;42.134;24.708;2022-08-25T13:07:36;24.87;;;7.10;;
2680;SDS011;1350;42.134;24.708;2022-08-25T13:10:37;20.53;;;7.40;;
2680;SDS011;1350;42.134;24.708;2022-08-25T13:13:11;23.60;;;8.53;;
2680;SDS011;1350;42.134;24.708;2022-08-25T13:15:57;25.50;;;8.00;;
2680;SDS011;1350;42.134;24.708;2022-08-25T13:18:26;22.50;;;7.37;;
2680;SDS011;1350;42.134;24.708;2022-08-25T13:21:00;22.30;;;7.50;;
2680;SDS011;1350;42.134;24.708;2022-08-25T13:23:42;24.57;;;7.00;;
2680;SDS011;1350;42.134;24.708;2022-08-25T13:26:11;15.83;;;7.13;;
2680;SDS011;1350;42.134;24.708;2022-08-25T13:28:41;24.57;;;6.93;;
2680;SDS011;1350;42.134;24.708;2022-08-25T13:31:16;30.07;;;8.93;;
2680;SDS011;1350;42.134;24.708;2022-08-25T13:33:49;28.40;;;7.23;;
2680;SDS011;1350;42.134;24.708;2022-08-25T13:36:17;19.27;;;7.20;;
2680;SDS011;1350;42.134;24.708;2022-08-25T13:39:09;21.43;;;7.43;;
2680;SDS011;1350;42.134;24.708;2022-08-25T13:41:42;21.20;;;6.20;;
2680;SDS011;1350;42.134;24.708;2022-08-25T13:44:13;14.47;;;5.73;;
2680;SDS011;1350;42.134;24.708;2022-08-25T13:46:42;17.20;;;6.10;;
2680;SDS011;1350;42.134;24.708;2022-08-25T13:49:11;26.43;;;7.50;;
2680;SDS011;1350;42.134;24.708;2022-08-25T13:51:50;21.40;;;6.37;;
2680;SDS011;1350;42.134;24.708;2022-08-25T13:54:23;13.43;;;6.83;;
2680;SDS011;1350;42.134;24.708;2022-08-25T13:56:52;16.97;;;6.30;;
2680;SDS011;1350;42.134;24.708;2022-08-25T13:59:22;17.10;;;6.23;;
2680;SDS011;1350;42.134;24.708;2022-08-25T14:01:52;15.40;;;6.63;;
2680;SDS011;1350;42.134;24.708;2022-08-25T14:04:28;18.10;;;6.33;;
2680;SDS011;1350;42.134;24.708;2022-08-25T14:09:52;15.83;;;6.30;;
2680;SDS011;1350;42.134;24.708;2022-08-25T14:15:27;19.30;;;7.70;;
2680;SDS011;1350;42.134;24.708;2022-08-25T14:17:59;21.57;;;7.10;;
2680;SDS011;1350;42.134;24.708;2022-08-25T14:20:30;16.77;;;7.13;;
2680;SDS011;1350;42.134;24.708;2022-08-25T14:22:58;18.00;;;6.57;;
2680;SDS011;1350;42.134;24.708;2022-08-25T14:25:30;23.53;;;6.90;;
2680;SDS011;1350;42.134;24.708;2022-08-25T14:27:59;17.30;;;6.27;;
2680;SDS011;1350;42.134;24.708;2022-08-25T14:30:32;13.67;;;5.40;;
2680;SDS011;1350;42.134;24.708;2022-08-25T14:33:01;15.47;;;6.73;;
2680;SDS011;1350;42.134;24.708;2022-08-25T14:35:29;21.40;;;6.43;;
2680;SDS011;1350;42.134;24.708;2022-08-25T14:37:56;24.43;;;7.53;;
2680;SDS011;1350;42.134;24.708;2022-08-25T14:40:23;14.67;;;6.87;;
2680;SDS011;1350;42.134;24.708;2022-08-25T14:42:50;20.03;;;6.80;;
2680;SDS011;1350;42.134;24.708;2022-08-25T14:45:17;12.27;;;5.70;;
2680;SDS011;1350;42.134;24.708;2022-08-25T14:47:46;19.30;;;6.07;;
2680;SDS011;1350;42.134;24.708;2022-08-25T14:50:12;24.37;;;6.83;;
2680;SDS011;1350;42.134;24.708;2022-08-25T14:52:41;15.67;;;7.80;;
2680;SDS011;1350;42.134;24.708;2022-08-25T14:55:09;18.80;;;7.40;;
2680;SDS011;1350;42.134;24.708;2022-08-25T14:57:38;15.30;;;7.43;;
2680;SDS011;1350;42.134;24.708;2022-08-25T15:00:06;15.43;;;5.50;;
2680;SDS011;1350;42.134;24.708;2022-08-25T15:02:34;20.23;;;6.60;;
2680;SDS011;1350;42.134;24.708;2022-08-25T15:05:07;21.17;;;7.70;;
2680;SDS011;1350;42.134;24.708;2022-08-25T15:07:36;22.30;;;7.47;;
2680;SDS011;1350;42.134;24.708;2022-08-25T15:10:21;17.60;;;6.70;;
2680;SDS011;1350;42.134;24.708;2022-08-25T15:12:48;21.97;;;8.50;;
2680;SDS011;1350;42.134;24.708;2022-08-25T15:15:15;27.37;;;10.10;;
2680;SDS011;1350;42.134;24.708;2022-08-25T15:17:43;25.43;;;8.33;;
2680;SDS011;1350;42.134;24.708;2022-08-25T15:20:12;23.90;;;8.40;;
2680;SDS011;1350;42.134;24.708;2022-08-25T15:22:39;23.60;;;7.30;;
2680;SDS011;1350;42.134;24.708;2022-08-25T15:25:06;21.47;;;6.63;;
2680;SDS011;1350;42.134;24.708;2022-08-25T15:27:33;12.63;;;5.60;;
2680;SDS011;1350;42.134;24.708;2022-08-25T15:30:00;19.20;;;6.87;;
2680;SDS011;1350;42.134;24.708;2022-08-25T15:32:27;23.20;;;6.63;;